sensor_id;sensor_type;location;lat;lon;timestamp;temperature;humidity
72106;SHT30;59975;47.646;18.318;2022-10-16T00:00:20;13.85;74.00
72106;SHT30;59975;47.646;18.318;2022-10-16T00:02:45;13.85;74.12
72106;SHT30;59975;47.646;18.318;2022-10-16T00:05:16;13.83;74.12
72106;SHT30;59975;47.646;18.318;2022-10-16T00:07:41;13.78;74.20
72106;SHT30;59975;47.646;18.318;2022-10-16T00:10:07;13.75;74.29
72106;SHT30;59975;47.646;18.318;2022-10-16T00:12:33;13.70;74.58
72106;SHT30;59975;47.646;18.318;2022-10-16T00:14:58;13.62;74.78
72106;SHT30;59975;47.646;18.318;2022-10-16T00:17:25;13.55;75.18
72106;SHT30;59975;47.646;18.318;2022-10-16T00:19:50;13.48;75.52
72106;SHT30;59975;47.646;18.318;2022-10-16T00:22:16;13.43;75.91
72106;SHT30;59975;47.646;18.318;2022-10-16T00:24:41;13.38;75.98
72106;SHT30;59975;47.646;18.318;2022-10-16T00:27:06;13.30;76.26
72106;SHT30;59975;47.646;18.318;2022-10-16T00:29:37;13.26;76.42
72106;SHT30;59975;47.646;18.318;2022-10-16T00:32:03;13.23;76.51
72106;SHT30;59975;47.646;18.318;2022-10-16T00:34:28;13.23;76.60
72106;SHT30;59975;47.646;18.318;2022-10-16T00:36:54;13.16;76.86
72106;SHT30;59975;47.646;18.318;2022-10-16T00:39:19;13.11;77.03
72106;SHT30;59975;47.646;18.318;2022-10-16T00:41:45;13.13;76.89
72106;SHT30;59975;47.646;18.318;2022-10-16T00:47:26;13.03;76.90
72106;SHT30;59975;47.646;18.318;2022-10-16T00:49:58;13.00;77.04
72106;SHT30;59975;47.646;18.318;2022-10-16T00:52:33;12.99;76.96
72106;SHT30;59975;47.646;18.318;2022-10-16T00:55:00;12.95;77.06
72106;SHT30;59975;47.646;18.318;2022-10-16T00:57:26;12.89;77.32
72106;SHT30;59975;47.646;18.318;2022-10-16T00:59:53;12.87;77.29
72106;SHT30;59975;47.646;18.318;2022-10-16T01:02:18;12.92;77.21
72106;SHT30;59975;47.646;18.318;2022-10-16T01:04:50;12.87;77.21
72106;SHT30;59975;47.646;18.318;2022-10-16T01:12:54;12.83;77.47
72106;SHT30;59975;47.646;18.318;2022-10-16T01:18:18;12.75;77.38
72106;SHT30;59975;47.646;18.318;2022-10-16T01:21:22;12.77;77.43
72106;SHT30;59975;47.646;18.318;2022-10-16T01:38:41;12.62;78.22
72106;SHT30;59975;47.646;18.318;2022-10-16T01:41:15;12.69;77.99
72106;SHT30;59975;47.646;18.318;2022-10-16T01:43:46;12.67;77.97
72106;SHT30;59975;47.646;18.318;2022-10-16T01:46:14;12.62;77.90
72106;SHT30;59975;47.646;18.318;2022-10-16T01:48:43;12.63;77.70
72106;SHT30;59975;47.646;18.318;2022-10-16T01:51:11;12.63;77.57
72106;SHT30;59975;47.646;18.318;2022-10-16T01:53:38;12.62;77.58
72106;SHT30;59975;47.646;18.318;2022-10-16T01:56:09;12.56;77.49
72106;SHT30;59975;47.646;18.318;2022-10-16T01:58:39;12.49;77.65
72106;SHT30;59975;47.646;18.318;2022-10-16T02:01:09;12.49;77.54
72106;SHT30;59975;47.646;18.318;2022-10-16T02:03:37;12.48;77.43
72106;SHT30;59975;47.646;18.318;2022-10-16T02:06:06;12.46;77.43
72106;SHT30;59975;47.646;18.318;2022-10-16T02:08:32;12.44;77.50
72106;SHT30;59975;47.646;18.318;2022-10-16T02:10:58;12.49;77.49
72106;SHT30;59975;47.646;18.318;2022-10-16T02:13:39;12.46;77.39
72106;SHT30;59975;47.646;18.318;2022-10-16T02:16:08;12.42;77.61
72106;SHT30;59975;47.646;18.318;2022-10-16T02:18:38;12.48;77.62
72106;SHT30;59975;47.646;18.318;2022-10-16T02:23:52;12.44;77.71
72106;SHT30;59975;47.646;18.318;2022-10-16T02:26:44;12.42;77.86
72106;SHT30;59975;47.646;18.318;2022-10-16T02:29:13;12.44;77.92
72106;SHT30;59975;47.646;18.318;2022-10-16T02:31:44;12.41;78.02
72106;SHT30;59975;47.646;18.318;2022-10-16T02:34:13;12.32;78.03
72106;SHT30;59975;47.646;18.318;2022-10-16T02:36:40;12.32;78.13
72106;SHT30;59975;47.646;18.318;2022-10-16T02:39:06;12.29;78.31
72106;SHT30;59975;47.646;18.318;2022-10-16T02:41:33;12.29;78.35
72106;SHT30;59975;47.646;18.318;2022-10-16T02:43:59;12.29;78.53
72106;SHT30;59975;47.646;18.318;2022-10-16T02:46:24;12.26;78.63
72106;SHT30;59975;47.646;18.318;2022-10-16T02:48:50;12.21;78.70
72106;SHT30;59975;47.646;18.318;2022-10-16T02:51:16;12.24;78.80
72106;SHT30;59975;47.646;18.318;2022-10-16T02:53:42;12.22;78.80
72106;SHT30;59975;47.646;18.318;2022-10-16T02:56:07;12.25;78.79
72106;SHT30;59975;47.646;18.318;2022-10-16T02:58:32;12.21;78.94
72106;SHT30;59975;47.646;18.318;2022-10-16T03:00:58;12.15;79.18
72106;SHT30;59975;47.646;18.318;2022-10-16T03:03:26;12.10;79.26
72106;SHT30;59975;47.646;18.318;2022-10-16T03:05:52;12.02;79.37
72106;SHT30;59975;47.646;18.318;2022-10-16T03:08:17;12.04;79.39
72106;SHT30;59975;47.646;18.318;2022-10-16T03:10:48;11.98;79.42
72106;SHT30;59975;47.646;18.318;2022-10-16T03:13:13;12.04;79.62
72106;SHT30;59975;47.646;18.318;2022-10-16T03:15:39;11.99;79.63
72106;SHT30;59975;47.646;18.318;2022-10-16T03:18:04;11.98;79.78
72106;SHT30;59975;47.646;18.318;2022-10-16T03:20:30;11.98;79.93
72106;SHT30;59975;47.646;18.318;2022-10-16T03:22:55;11.97;79.97
72106;SHT30;59975;47.646;18.318;2022-10-16T03:25:21;11.97;79.98
72106;SHT30;59975;47.646;18.318;2022-10-16T03:27:46;11.92;79.73
72106;SHT30;59975;47.646;18.318;2022-10-16T03:30:12;11.94;79.44
72106;SHT30;59975;47.646;18.318;2022-10-16T03:32:37;11.95;79.26
72106;SHT30;59975;47.646;18.318;2022-10-16T03:35:03;11.94;79.10
72106;SHT30;59975;47.646;18.318;2022-10-16T03:37:29;11.92;78.94
72106;SHT30;59975;47.646;18.318;2022-10-16T03:39:54;11.92;78.95
72106;SHT30;59975;47.646;18.318;2022-10-16T03:42:20;11.95;78.78
72106;SHT30;59975;47.646;18.318;2022-10-16T03:44:45;11.99;78.75
72106;SHT30;59975;47.646;18.318;2022-10-16T03:47:11;11.91;78.97
72106;SHT30;59975;47.646;18.318;2022-10-16T03:49:36;11.88;79.20
72106;SHT30;59975;47.646;18.318;2022-10-16T03:52:02;11.85;79.58
72106;SHT30;59975;47.646;18.318;2022-10-16T03:54:27;11.91;79.49
72106;SHT30;59975;47.646;18.318;2022-10-16T03:56:53;11.88;79.57
72106;SHT30;59975;47.646;18.318;2022-10-16T03:59:18;11.85;79.52
72106;SHT30;59975;47.646;18.318;2022-10-16T04:01:45;11.82;79.51
72106;SHT30;59975;47.646;18.318;2022-10-16T04:04:10;11.87;79.38
72106;SHT30;59975;47.646;18.318;2022-10-16T04:06:36;11.88;79.25
72106;SHT30;59975;47.646;18.318;2022-10-16T04:09:01;11.82;79.32
72106;SHT30;59975;47.646;18.318;2022-10-16T04:11:27;11.80;79.37
72106;SHT30;59975;47.646;18.318;2022-10-16T04:13:52;11.82;79.10
72106;SHT30;59975;47.646;18.318;2022-10-16T04:16:18;11.82;79.15
72106;SHT30;59975;47.646;18.318;2022-10-16T04:18:43;11.84;79.05
72106;SHT30;59975;47.646;18.318;2022-10-16T04:21:09;11.87;78.85
72106;SHT30;59975;47.646;18.318;2022-10-16T04:23:34;11.94;78.59
72106;SHT30;59975;47.646;18.318;2022-10-16T04:26:00;11.91;78.37
72106;SHT30;59975;47.646;18.318;2022-10-16T04:28:25;11.99;78.03
72106;SHT30;59975;47.646;18.318;2022-10-16T04:30:51;11.90;78.23
72106;SHT30;59975;47.646;18.318;2022-10-16T04:33:17;11.88;78.28
72106;SHT30;59975;47.646;18.318;2022-10-16T04:35:43;11.81;78.42
72106;SHT30;59975;47.646;18.318;2022-10-16T04:38:09;11.80;78.62
72106;SHT30;59975;47.646;18.318;2022-10-16T04:40:34;11.78;78.76
72106;SHT30;59975;47.646;18.318;2022-10-16T04:43:03;11.81;78.90
72106;SHT30;59975;47.646;18.318;2022-10-16T04:45:29;11.80;78.78
72106;SHT30;59975;47.646;18.318;2022-10-16T04:47:58;11.81;78.66
72106;SHT30;59975;47.646;18.318;2022-10-16T04:50:23;11.81;78.37
72106;SHT30;59975;47.646;18.318;2022-10-16T04:52:49;11.84;78.18
72106;SHT30;59975;47.646;18.318;2022-10-16T04:55:14;11.82;78.11
72106;SHT30;59975;47.646;18.318;2022-10-16T04:57:40;11.88;77.94
72106;SHT30;59975;47.646;18.318;2022-10-16T05:00:06;11.85;77.65
72106;SHT30;59975;47.646;18.318;2022-10-16T05:02:33;11.87;77.71
72106;SHT30;59975;47.646;18.318;2022-10-16T05:04:59;11.80;77.70
72106;SHT30;59975;47.646;18.318;2022-10-16T05:07:25;11.77;77.75
72106;SHT30;59975;47.646;18.318;2022-10-16T05:09:50;11.81;77.73
72106;SHT30;59975;47.646;18.318;2022-10-16T05:12:17;11.78;77.88
72106;SHT30;59975;47.646;18.318;2022-10-16T05:14:43;11.74;77.75
72106;SHT30;59975;47.646;18.318;2022-10-16T05:17:08;11.80;77.55
72106;SHT30;59975;47.646;18.318;2022-10-16T05:19:34;11.78;77.63
72106;SHT30;59975;47.646;18.318;2022-10-16T05:22:00;11.82;77.16
72106;SHT30;59975;47.646;18.318;2022-10-16T05:24:30;11.85;77.04
72106;SHT30;59975;47.646;18.318;2022-10-16T05:26:56;11.91;76.68
72106;SHT30;59975;47.646;18.318;2022-10-16T05:29:21;11.90;76.76
72106;SHT30;59975;47.646;18.318;2022-10-16T05:31:50;11.91;76.74
72106;SHT30;59975;47.646;18.318;2022-10-16T05:34:15;11.92;76.63
72106;SHT30;59975;47.646;18.318;2022-10-16T05:40:04;11.85;76.89
72106;SHT30;59975;47.646;18.318;2022-10-16T05:42:30;11.82;76.65
72106;SHT30;59975;47.646;18.318;2022-10-16T05:44:56;11.85;76.53
72106;SHT30;59975;47.646;18.318;2022-10-16T05:47:21;11.90;76.23
72106;SHT30;59975;47.646;18.318;2022-10-16T05:49:47;11.97;76.04
72106;SHT30;59975;47.646;18.318;2022-10-16T05:52:13;12.04;75.84
72106;SHT30;59975;47.646;18.318;2022-10-16T05:54:39;12.11;75.70
72106;SHT30;59975;47.646;18.318;2022-10-16T05:57:04;12.20;75.14
72106;SHT30;59975;47.646;18.318;2022-10-16T05:59:31;12.24;75.10
72106;SHT30;59975;47.646;18.318;2022-10-16T06:01:57;12.31;74.98
72106;SHT30;59975;47.646;18.318;2022-10-16T06:04:25;12.29;75.06
72106;SHT30;59975;47.646;18.318;2022-10-16T06:06:51;12.35;74.55
72106;SHT30;59975;47.646;18.318;2022-10-16T06:09:16;12.44;74.37
72106;SHT30;59975;47.646;18.318;2022-10-16T06:11:42;12.46;74.20
72106;SHT30;59975;47.646;18.318;2022-10-16T06:14:08;12.52;74.12
72106;SHT30;59975;47.646;18.318;2022-10-16T06:16:37;12.60;73.83
72106;SHT30;59975;47.646;18.318;2022-10-16T06:19:03;12.65;73.78
72106;SHT30;59975;47.646;18.318;2022-10-16T06:21:31;12.75;73.49
72106;SHT30;59975;47.646;18.318;2022-10-16T06:23:57;12.80;73.08
72106;SHT30;59975;47.646;18.318;2022-10-16T06:26:25;12.86;72.85
72106;SHT30;59975;47.646;18.318;2022-10-16T06:28:58;12.96;72.66
72106;SHT30;59975;47.646;18.318;2022-10-16T06:31:25;12.99;72.74
72106;SHT30;59975;47.646;18.318;2022-10-16T06:33:53;13.03;72.59
72106;SHT30;59975;47.646;18.318;2022-10-16T06:36:19;13.11;72.24
72106;SHT30;59975;47.646;18.318;2022-10-16T06:38:46;13.16;71.99
72106;SHT30;59975;47.646;18.318;2022-10-16T06:41:15;13.27;71.36
72106;SHT30;59975;47.646;18.318;2022-10-16T06:43:41;13.31;71.62
72106;SHT30;59975;47.646;18.318;2022-10-16T06:46:08;13.38;71.38
72106;SHT30;59975;47.646;18.318;2022-10-16T06:48:35;13.40;71.51
72106;SHT30;59975;47.646;18.318;2022-10-16T06:51:21;13.48;71.48
72106;SHT30;59975;47.646;18.318;2022-10-16T06:53:49;13.54;70.48
72106;SHT30;59975;47.646;18.318;2022-10-16T06:56:21;13.58;70.55
72106;SHT30;59975;47.646;18.318;2022-10-16T06:58:47;13.64;70.79
72106;SHT30;59975;47.646;18.318;2022-10-16T07:01:16;13.65;71.16
72106;SHT30;59975;47.646;18.318;2022-10-16T07:03:43;13.71;70.34
72106;SHT30;59975;47.646;18.318;2022-10-16T07:06:10;13.77;70.32
72106;SHT30;59975;47.646;18.318;2022-10-16T07:08:38;13.83;69.94
72106;SHT30;59975;47.646;18.318;2022-10-16T07:11:08;13.92;69.68
72106;SHT30;59975;47.646;18.318;2022-10-16T07:13:36;13.95;69.62
72106;SHT30;59975;47.646;18.318;2022-10-16T07:16:16;14.01;69.63
72106;SHT30;59975;47.646;18.318;2022-10-16T07:18:42;14.08;69.12
72106;SHT30;59975;47.646;18.318;2022-10-16T07:21:21;14.11;69.33
72106;SHT30;59975;47.646;18.318;2022-10-16T07:23:55;14.19;69.07
72106;SHT30;59975;47.646;18.318;2022-10-16T07:26:21;14.26;68.96
72106;SHT30;59975;47.646;18.318;2022-10-16T07:28:47;14.29;68.50
72106;SHT30;59975;47.646;18.318;2022-10-16T07:31:15;14.34;68.26
72106;SHT30;59975;47.646;18.318;2022-10-16T07:33:42;14.42;68.23
72106;SHT30;59975;47.646;18.318;2022-10-16T07:36:10;14.47;68.27
72106;SHT30;59975;47.646;18.318;2022-10-16T07:38:36;14.55;67.82
72106;SHT30;59975;47.646;18.318;2022-10-16T07:41:05;14.59;67.79
72106;SHT30;59975;47.646;18.318;2022-10-16T07:43:31;14.63;67.47
72106;SHT30;59975;47.646;18.318;2022-10-16T07:45:56;14.67;67.58
72106;SHT30;59975;47.646;18.318;2022-10-16T07:48:23;14.72;67.79
72106;SHT30;59975;47.646;18.318;2022-10-16T07:50:49;14.79;67.72
72106;SHT30;59975;47.646;18.318;2022-10-16T07:53:16;14.86;67.58
72106;SHT30;59975;47.646;18.318;2022-10-16T07:55:41;14.96;67.59
72106;SHT30;59975;47.646;18.318;2022-10-16T07:58:07;15.06;66.78
72106;SHT30;59975;47.646;18.318;2022-10-16T08:00:33;15.12;66.71
72106;SHT30;59975;47.646;18.318;2022-10-16T08:02:59;15.17;66.54
72106;SHT30;59975;47.646;18.318;2022-10-16T08:05:30;15.21;66.06
72106;SHT30;59975;47.646;18.318;2022-10-16T08:07:56;15.30;65.94
72106;SHT30;59975;47.646;18.318;2022-10-16T08:10:24;15.39;65.80
72106;SHT30;59975;47.646;18.318;2022-10-16T08:12:50;15.49;65.76
72106;SHT30;59975;47.646;18.318;2022-10-16T08:15:16;15.57;64.96
72106;SHT30;59975;47.646;18.318;2022-10-16T08:21:14;15.72;65.18
72106;SHT30;59975;47.646;18.318;2022-10-16T08:23:40;15.82;64.71
72106;SHT30;59975;47.646;18.318;2022-10-16T08:26:07;15.90;64.73
72106;SHT30;59975;47.646;18.318;2022-10-16T08:28:33;15.96;64.18
72106;SHT30;59975;47.646;18.318;2022-10-16T08:31:13;16.06;64.17
72106;SHT30;59975;47.646;18.318;2022-10-16T08:33:41;16.13;63.73
72106;SHT30;59975;47.646;18.318;2022-10-16T08:36:07;16.16;64.01
72106;SHT30;59975;47.646;18.318;2022-10-16T08:38:33;16.26;63.79
72106;SHT30;59975;47.646;18.318;2022-10-16T08:41:21;16.34;63.78
72106;SHT30;59975;47.646;18.318;2022-10-16T08:49:23;16.63;63.09
72106;SHT30;59975;47.646;18.318;2022-10-16T08:51:55;16.75;62.73
72106;SHT30;59975;47.646;18.318;2022-10-16T08:54:45;16.83;62.27
72106;SHT30;59975;47.646;18.318;2022-10-16T08:57:19;16.89;61.96
72106;SHT30;59975;47.646;18.318;2022-10-16T08:59:45;16.95;62.15
72106;SHT30;59975;47.646;18.318;2022-10-16T09:05:02;17.08;61.64
72106;SHT30;59975;47.646;18.318;2022-10-16T09:21:15;17.35;61.30
72106;SHT30;59975;47.646;18.318;2022-10-16T09:23:48;17.36;61.00
72106;SHT30;59975;47.646;18.318;2022-10-16T09:26:16;17.36;60.69
72106;SHT30;59975;47.646;18.318;2022-10-16T09:28:42;17.36;60.78
72106;SHT30;59975;47.646;18.318;2022-10-16T09:31:16;17.39;61.12
72106;SHT30;59975;47.646;18.318;2022-10-16T09:33:44;17.45;61.40
72106;SHT30;59975;47.646;18.318;2022-10-16T09:36:11;17.52;60.93
72106;SHT30;59975;47.646;18.318;2022-10-16T09:38:38;17.62;60.88
72106;SHT30;59975;47.646;18.318;2022-10-16T09:41:21;17.69;60.78
72106;SHT30;59975;47.646;18.318;2022-10-16T09:47:20;17.86;60.32
72106;SHT30;59975;47.646;18.318;2022-10-16T09:50:25;17.90;60.36
72106;SHT30;59975;47.646;18.318;2022-10-16T09:53:03;17.96;60.09
72106;SHT30;59975;47.646;18.318;2022-10-16T09:55:32;18.03;59.87
72106;SHT30;59975;47.646;18.318;2022-10-16T09:57:58;18.11;59.71
72106;SHT30;59975;47.646;18.318;2022-10-16T10:00:24;18.11;59.67
72106;SHT30;59975;47.646;18.318;2022-10-16T10:02:50;18.23;59.73
72106;SHT30;59975;47.646;18.318;2022-10-16T10:05:21;18.26;59.76
72106;SHT30;59975;47.646;18.318;2022-10-16T10:07:54;18.36;59.19
72106;SHT30;59975;47.646;18.318;2022-10-16T10:10:28;18.41;59.18
72106;SHT30;59975;47.646;18.318;2022-10-16T10:12:55;18.44;59.28
72106;SHT30;59975;47.646;18.318;2022-10-16T10:15:22;18.51;59.31
72106;SHT30;59975;47.646;18.318;2022-10-16T10:17:56;18.57;59.09
72106;SHT30;59975;47.646;18.318;2022-10-16T10:20:33;18.64;58.53
72106;SHT30;59975;47.646;18.318;2022-10-16T10:23:01;18.65;59.10
72106;SHT30;59975;47.646;18.318;2022-10-16T10:36:56;19.06;58.07
72106;SHT30;59975;47.646;18.318;2022-10-16T10:39:32;19.11;58.76
72106;SHT30;59975;47.646;18.318;2022-10-16T10:45:02;19.20;57.84
72106;SHT30;59975;47.646;18.318;2022-10-16T10:51:01;19.25;57.20
72106;SHT30;59975;47.646;18.318;2022-10-16T11:04:28;19.13;57.65
72106;SHT30;59975;47.646;18.318;2022-10-16T11:07:02;19.20;57.32
72106;SHT30;59975;47.646;18.318;2022-10-16T11:09:52;19.23;57.20
72106;SHT30;59975;47.646;18.318;2022-10-16T11:12:21;19.26;57.01
72106;SHT30;59975;47.646;18.318;2022-10-16T11:18:07;19.30;57.21
72106;SHT30;59975;47.646;18.318;2022-10-16T11:20:45;19.26;57.76
72106;SHT30;59975;47.646;18.318;2022-10-16T11:25:58;19.36;57.02
72106;SHT30;59975;47.646;18.318;2022-10-16T11:28:33;19.39;56.96
72106;SHT30;59975;47.646;18.318;2022-10-16T11:34:17;19.39;57.04
72106;SHT30;59975;47.646;18.318;2022-10-16T11:37:04;19.43;56.69
72106;SHT30;59975;47.646;18.318;2022-10-16T11:39:30;19.47;57.08
72106;SHT30;59975;47.646;18.318;2022-10-16T11:42:19;19.47;56.77
72106;SHT30;59975;47.646;18.318;2022-10-16T11:47:43;19.42;56.83
72106;SHT30;59975;47.646;18.318;2022-10-16T11:50:26;19.43;56.90
72106;SHT30;59975;47.646;18.318;2022-10-16T11:55:45;19.50;57.39
72106;SHT30;59975;47.646;18.318;2022-10-16T12:03:31;19.55;56.66
72106;SHT30;59975;47.646;18.318;2022-10-16T12:08:39;19.62;57.60
72106;SHT30;59975;47.646;18.318;2022-10-16T12:11:08;19.63;57.53
72106;SHT30;59975;47.646;18.318;2022-10-16T12:16:58;19.69;56.78
72106;SHT30;59975;47.646;18.318;2022-10-16T12:19:27;19.71;56.83
72106;SHT30;59975;47.646;18.318;2022-10-16T12:21:56;19.78;56.89
72106;SHT30;59975;47.646;18.318;2022-10-16T12:24:37;19.83;56.55
72106;SHT30;59975;47.646;18.318;2022-10-16T12:27:05;19.88;56.54
72106;SHT30;59975;47.646;18.318;2022-10-16T12:29:39;19.87;56.88
72106;SHT30;59975;47.646;18.318;2022-10-16T12:32:37;19.90;56.42
72106;SHT30;59975;47.646;18.318;2022-10-16T12:35:26;19.90;56.70
72106;SHT30;59975;47.646;18.318;2022-10-16T12:37:52;19.88;56.26
72106;SHT30;59975;47.646;18.318;2022-10-16T12:40:33;19.84;56.44
72106;SHT30;59975;47.646;18.318;2022-10-16T12:43:10;19.94;56.58
72106;SHT30;59975;47.646;18.318;2022-10-16T12:45:38;19.87;56.30
72106;SHT30;59975;47.646;18.318;2022-10-16T12:48:19;19.83;57.33
72106;SHT30;59975;47.646;18.318;2022-10-16T12:50:45;19.83;57.66
72106;SHT30;59975;47.646;18.318;2022-10-16T12:53:23;19.94;56.89
72106;SHT30;59975;47.646;18.318;2022-10-16T12:59:13;19.88;56.99
72106;SHT30;59975;47.646;18.318;2022-10-16T13:07:26;19.94;56.39
72106;SHT30;59975;47.646;18.318;2022-10-16T13:15:39;19.98;56.65
72106;SHT30;59975;47.646;18.318;2022-10-16T13:23:29;19.90;56.42
72106;SHT30;59975;47.646;18.318;2022-10-16T13:28:38;19.88;56.49
72106;SHT30;59975;47.646;18.318;2022-10-16T13:31:04;19.91;56.88
72106;SHT30;59975;47.646;18.318;2022-10-16T13:33:51;19.84;56.76
72106;SHT30;59975;47.646;18.318;2022-10-16T13:36:25;19.77;57.30
72106;SHT30;59975;47.646;18.318;2022-10-16T13:39:24;19.78;57.09
72106;SHT30;59975;47.646;18.318;2022-10-16T13:42:22;19.76;57.34
72106;SHT30;59975;47.646;18.318;2022-10-16T13:44:51;19.74;57.15
72106;SHT30;59975;47.646;18.318;2022-10-16T13:47:20;19.76;56.92
72106;SHT30;59975;47.646;18.318;2022-10-16T13:50:06;19.71;57.11
72106;SHT30;59975;47.646;18.318;2022-10-16T13:52:32;19.69;57.22
72106;SHT30;59975;47.646;18.318;2022-10-16T13:54:57;19.70;57.05
72106;SHT30;59975;47.646;18.318;2022-10-16T13:57:24;19.67;56.65
72106;SHT30;59975;47.646;18.318;2022-10-16T13:59:56;19.63;56.79
72106;SHT30;59975;47.646;18.318;2022-10-16T14:02:40;19.66;57.03
72106;SHT30;59975;47.646;18.318;2022-10-16T14:05:08;19.62;57.45
72106;SHT30;59975;47.646;18.318;2022-10-16T14:07:36;19.62;57.40
72106;SHT30;59975;47.646;18.318;2022-10-16T14:10:05;19.56;57.29
72106;SHT30;59975;47.646;18.318;2022-10-16T14:12:32;19.56;57.23
72106;SHT30;59975;47.646;18.318;2022-10-16T14:14:59;19.52;57.72
72106;SHT30;59975;47.646;18.318;2022-10-16T14:17:30;19.56;57.14
72106;SHT30;59975;47.646;18.318;2022-10-16T14:19:59;19.53;57.79
72106;SHT30;59975;47.646;18.318;2022-10-16T14:22:40;19.52;57.10
72106;SHT30;59975;47.646;18.318;2022-10-16T14:27:44;19.43;57.69
72106;SHT30;59975;47.646;18.318;2022-10-16T14:30:20;19.42;57.77
72106;SHT30;59975;47.646;18.318;2022-10-16T14:32:54;19.36;57.85
72106;SHT30;59975;47.646;18.318;2022-10-16T14:37:54;19.32;57.78
72106;SHT30;59975;47.646;18.318;2022-10-16T14:40:26;19.29;58.05
72106;SHT30;59975;47.646;18.318;2022-10-16T14:42:53;19.25;57.94
72106;SHT30;59975;47.646;18.318;2022-10-16T14:45:24;19.20;58.11
72106;SHT30;59975;47.646;18.318;2022-10-16T14:47:52;19.13;58.15
72106;SHT30;59975;47.646;18.318;2022-10-16T14:50:18;19.09;58.23
72106;SHT30;59975;47.646;18.318;2022-10-16T14:52:44;19.05;58.35
72106;SHT30;59975;47.646;18.318;2022-10-16T14:55:10;18.99;58.85
72106;SHT30;59975;47.646;18.318;2022-10-16T14:57:37;18.91;59.08
72106;SHT30;59975;47.646;18.318;2022-10-16T15:00:09;18.84;59.16
72106;SHT30;59975;47.646;18.318;2022-10-16T15:02:36;18.81;59.35
72106;SHT30;59975;47.646;18.318;2022-10-16T15:05:23;18.71;59.58
72106;SHT30;59975;47.646;18.318;2022-10-16T15:07:50;18.64;59.97
72106;SHT30;59975;47.646;18.318;2022-10-16T15:10:17;18.60;59.95
72106;SHT30;59975;47.646;18.318;2022-10-16T15:12:43;18.48;60.13
72106;SHT30;59975;47.646;18.318;2022-10-16T15:15:32;18.48;60.15
72106;SHT30;59975;47.646;18.318;2022-10-16T15:17:58;18.43;59.93
72106;SHT30;59975;47.646;18.318;2022-10-16T15:20:35;18.36;60.19
72106;SHT30;59975;47.646;18.318;2022-10-16T15:23:06;18.34;60.19
72106;SHT30;59975;47.646;18.318;2022-10-16T15:25:44;18.26;60.27
72106;SHT30;59975;47.646;18.318;2022-10-16T15:28:11;18.17;60.44
72106;SHT30;59975;47.646;18.318;2022-10-16T15:30:39;18.11;61.15
72106;SHT30;59975;47.646;18.318;2022-10-16T15:33:20;18.00;60.92
72106;SHT30;59975;47.646;18.318;2022-10-16T15:35:47;17.87;61.31
72106;SHT30;59975;47.646;18.318;2022-10-16T15:38:13;17.86;61.73
72106;SHT30;59975;47.646;18.318;2022-10-16T15:40:40;17.80;61.51
72106;SHT30;59975;47.646;18.318;2022-10-16T15:43:07;17.70;61.81
72106;SHT30;59975;47.646;18.318;2022-10-16T15:45:32;17.61;62.18
72106;SHT30;59975;47.646;18.318;2022-10-16T15:47:58;17.50;62.69
72106;SHT30;59975;47.646;18.318;2022-10-16T15:50:24;17.40;63.03
72106;SHT30;59975;47.646;18.318;2022-10-16T15:52:51;17.24;63.72
72106;SHT30;59975;47.646;18.318;2022-10-16T15:55:16;17.12;63.98
72106;SHT30;59975;47.646;18.318;2022-10-16T15:57:44;17.05;64.29
72106;SHT30;59975;47.646;18.318;2022-10-16T16:00:13;16.98;64.33
72106;SHT30;59975;47.646;18.318;2022-10-16T16:02:39;16.92;64.37
72106;SHT30;59975;47.646;18.318;2022-10-16T16:05:06;16.84;64.63
72106;SHT30;59975;47.646;18.318;2022-10-16T16:07:34;16.81;64.74
72106;SHT30;59975;47.646;18.318;2022-10-16T16:09:59;16.73;65.04
72106;SHT30;59975;47.646;18.318;2022-10-16T16:12:25;16.68;65.24
72106;SHT30;59975;47.646;18.318;2022-10-16T16:14:50;16.57;65.58
72106;SHT30;59975;47.646;18.318;2022-10-16T16:17:16;16.50;65.85
72106;SHT30;59975;47.646;18.318;2022-10-16T16:19:42;16.46;65.95
72106;SHT30;59975;47.646;18.318;2022-10-16T16:22:07;16.34;66.23
72106;SHT30;59975;47.646;18.318;2022-10-16T16:24:33;16.27;66.46
72106;SHT30;59975;47.646;18.318;2022-10-16T16:26:58;16.23;66.69
72106;SHT30;59975;47.646;18.318;2022-10-16T16:29:24;16.19;66.83
72106;SHT30;59975;47.646;18.318;2022-10-16T16:31:49;16.17;66.83
72106;SHT30;59975;47.646;18.318;2022-10-16T16:34:15;16.13;67.00
72106;SHT30;59975;47.646;18.318;2022-10-16T16:36:43;16.08;67.26
72106;SHT30;59975;47.646;18.318;2022-10-16T16:39:08;16.00;67.49
72106;SHT30;59975;47.646;18.318;2022-10-16T16:41:34;15.93;67.39
72106;SHT30;59975;47.646;18.318;2022-10-16T16:44:04;15.95;67.30
72106;SHT30;59975;47.646;18.318;2022-10-16T16:46:31;15.90;67.37
72106;SHT30;59975;47.646;18.318;2022-10-16T16:48:59;15.88;67.11
72106;SHT30;59975;47.646;18.318;2022-10-16T16:51:24;15.90;67.12
72106;SHT30;59975;47.646;18.318;2022-10-16T16:53:52;15.88;67.11
72106;SHT30;59975;47.646;18.318;2022-10-16T16:56:18;15.93;67.11
72106;SHT30;59975;47.646;18.318;2022-10-16T16:58:48;15.88;67.13
72106;SHT30;59975;47.646;18.318;2022-10-16T17:01:14;15.79;67.17
72106;SHT30;59975;47.646;18.318;2022-10-16T17:03:42;15.75;67.15
72106;SHT30;59975;47.646;18.318;2022-10-16T17:06:12;15.79;66.89
72106;SHT30;59975;47.646;18.318;2022-10-16T17:08:38;15.73;66.97
72106;SHT30;59975;47.646;18.318;2022-10-16T17:11:05;15.75;67.01
72106;SHT30;59975;47.646;18.318;2022-10-16T17:13:33;15.69;67.18
72106;SHT30;59975;47.646;18.318;2022-10-16T17:16:02;15.61;67.37
72106;SHT30;59975;47.646;18.318;2022-10-16T17:18:27;15.58;67.54
72106;SHT30;59975;47.646;18.318;2022-10-16T17:20:53;15.58;67.57
72106;SHT30;59975;47.646;18.318;2022-10-16T17:23:19;15.51;67.83
72106;SHT30;59975;47.646;18.318;2022-10-16T17:25:45;15.54;67.68
72106;SHT30;59975;47.646;18.318;2022-10-16T17:28:12;15.52;67.63
72106;SHT30;59975;47.646;18.318;2022-10-16T17:30:42;15.63;67.38
72106;SHT30;59975;47.646;18.318;2022-10-16T17:33:09;15.58;67.45
72106;SHT30;59975;47.646;18.318;2022-10-16T17:35:40;15.52;67.43
72106;SHT30;59975;47.646;18.318;2022-10-16T17:38:05;15.65;66.88
72106;SHT30;59975;47.646;18.318;2022-10-16T17:40:31;15.68;66.69
72106;SHT30;59975;47.646;18.318;2022-10-16T17:42:58;15.69;66.46
72106;SHT30;59975;47.646;18.318;2022-10-16T17:45:23;15.66;66.32
72106;SHT30;59975;47.646;18.318;2022-10-16T17:47:49;15.68;66.20
72106;SHT30;59975;47.646;18.318;2022-10-16T17:50:14;15.62;66.36